sensor_id;sensor_type;location;lat;lon;timestamp;pressure;altitude;pressure_sealevel;temperature;humidity
84501;BME280;74725;44.210;17.906;2023-12-07T00:00:17;97994.09;;;2.88;74.56
84501;BME280;74725;44.210;17.906;2023-12-07T00:02:42;97994.84;;;2.88;74.16
84501;BME280;74725;44.210;17.906;2023-12-07T00:05:08;98003.00;;;2.92;74.51
84501;BME280;74725;44.210;17.906;2023-12-07T00:07:34;97998.41;;;3.00;76.24
84501;BME280;74725;44.210;17.906;2023-12-07T00:09:59;97998.00;;;2.98;74.20
84501;BME280;74725;44.210;17.906;2023-12-07T00:12:25;98003.03;;;2.99;73.89
84501;BME280;74725;44.210;17.906;2023-12-07T00:22:56;98011.69;;;3.23;73.32
84501;BME280;74725;44.210;17.906;2023-12-07T00:30:39;98019.06;;;3.26;73.28
84501;BME280;74725;44.210;17.906;2023-12-07T00:33:05;98029.06;;;3.18;73.00
84501;BME280;74725;44.210;17.906;2023-12-07T00:40:54;98030.09;;;2.99;73.87
84501;BME280;74725;44.210;17.906;2023-12-07T00:45:55;98034.38;;;3.04;73.84
84501;BME280;74725;44.210;17.906;2023-12-07T00:48:20;98043.69;;;3.13;73.56
84501;BME280;74725;44.210;17.906;2023-12-07T00:50:46;98044.53;;;3.25;73.71
84501;BME280;74725;44.210;17.906;2023-12-07T00:53:12;98043.09;;;3.38;72.76
84501;BME280;74725;44.210;17.906;2023-12-07T00:55:38;98048.53;;;3.45;73.05
84501;BME280;74725;44.210;17.906;2023-12-07T00:58:05;98052.44;;;3.55;72.47
84501;BME280;74725;44.210;17.906;2023-12-07T01:00:31;98060.19;;;3.60;73.02
84501;BME280;74725;44.210;17.906;2023-12-07T01:02:57;98060.22;;;3.63;72.35
84501;BME280;74725;44.210;17.906;2023-12-07T01:07:58;98062.59;;;3.68;72.38
84501;BME280;74725;44.210;17.906;2023-12-07T01:10:23;98065.66;;;3.67;72.34
84501;BME280;74725;44.210;17.906;2023-12-07T01:12:49;98050.88;;;3.50;72.35
84501;BME280;74725;44.210;17.906;2023-12-07T01:17:57;98049.69;;;3.48;73.55
84501;BME280;74725;44.210;17.906;2023-12-07T01:20:22;98050.88;;;3.50;73.03
84501;BME280;74725;44.210;17.906;2023-12-07T01:22:48;98048.19;;;3.50;72.63
84501;BME280;74725;44.210;17.906;2023-12-07T01:27:56;98056.66;;;3.45;72.99
84501;BME280;74725;44.210;17.906;2023-12-07T01:30:22;98050.09;;;3.46;73.20
84501;BME280;74725;44.210;17.906;2023-12-07T01:32:48;98051.63;;;3.47;72.85
84501;BME280;74725;44.210;17.906;2023-12-07T01:37:55;98043.59;;;3.65;72.89
84501;BME280;74725;44.210;17.906;2023-12-07T01:40:20;98055.66;;;3.78;72.81
84501;BME280;74725;44.210;17.906;2023-12-07T01:42:50;98059.97;;;3.93;72.10
84501;BME280;74725;44.210;17.906;2023-12-07T01:45:16;98054.59;;;4.04;71.63
84501;BME280;74725;44.210;17.906;2023-12-07T01:47:43;98051.91;;;4.11;71.33
84501;BME280;74725;44.210;17.906;2023-12-07T01:50:09;98051.94;;;4.22;71.02
84501;BME280;74725;44.210;17.906;2023-12-07T01:52:38;98057.34;;;4.26;70.50
84501;BME280;74725;44.210;17.906;2023-12-07T02:00:30;98064.75;;;4.43;69.77
84501;BME280;74725;44.210;17.906;2023-12-07T02:02:56;98056.59;;;4.39;70.20
84501;BME280;74725;44.210;17.906;2023-12-07T02:08:03;98082.53;;;4.37;70.08
84501;BME280;74725;44.210;17.906;2023-12-07T02:10:30;98074.03;;;4.38;69.73
84501;BME280;74725;44.210;17.906;2023-12-07T02:12:55;98070.56;;;4.41;69.05
84501;BME280;74725;44.210;17.906;2023-12-07T02:23:47;98087.47;;;4.06;70.26
84501;BME280;74725;44.210;17.906;2023-12-07T02:28:58;98079.34;;;3.96;71.42
84501;BME280;74725;44.210;17.906;2023-12-07T02:31:23;98081.63;;;3.93;71.11
84501;BME280;74725;44.210;17.906;2023-12-07T02:33:49;98091.66;;;3.86;71.41
84501;BME280;74725;44.210;17.906;2023-12-07T02:38:58;98090.59;;;4.08;70.81
84501;BME280;74725;44.210;17.906;2023-12-07T02:41:27;98092.16;;;4.13;70.66
84501;BME280;74725;44.210;17.906;2023-12-07T02:43:54;98099.56;;;4.23;70.53
84501;BME280;74725;44.210;17.906;2023-12-07T02:54:26;98092.63;;;4.44;69.89
84501;BME280;74725;44.210;17.906;2023-12-07T02:56:51;98094.53;;;4.29;69.85
84501;BME280;74725;44.210;17.906;2023-12-07T02:59:18;98103.06;;;4.34;69.42
84501;BME280;74725;44.210;17.906;2023-12-07T03:01:44;98106.16;;;4.36;69.56
84501;BME280;74725;44.210;17.906;2023-12-07T03:04:09;98102.28;;;4.37;69.95
84501;BME280;74725;44.210;17.906;2023-12-07T03:06:35;98094.56;;;4.36;70.48
84501;BME280;74725;44.210;17.906;2023-12-07T03:09:00;98092.63;;;4.36;71.21
84501;BME280;74725;44.210;17.906;2023-12-07T03:11:27;98103.84;;;4.31;69.97
84501;BME280;74725;44.210;17.906;2023-12-07T03:13:52;98101.13;;;4.35;70.38
84501;BME280;74725;44.210;17.906;2023-12-07T03:16:18;98112.00;;;4.38;70.51
84501;BME280;74725;44.210;17.906;2023-12-07T03:18:44;98112.00;;;4.46;70.66
84501;BME280;74725;44.210;17.906;2023-12-07T03:21:09;98110.81;;;4.39;70.88
84501;BME280;74725;44.210;17.906;2023-12-07T03:23:35;98113.16;;;4.34;70.96
84501;BME280;74725;44.210;17.906;2023-12-07T03:28:43;98123.19;;;4.37;71.06
84501;BME280;74725;44.210;17.906;2023-12-07T03:31:08;98126.28;;;4.32;70.91
84501;BME280;74725;44.210;17.906;2023-12-07T03:33:34;98123.19;;;4.37;71.35
84501;BME280;74725;44.210;17.906;2023-12-07T03:36:00;98120.50;;;4.40;71.07
84501;BME280;74725;44.210;17.906;2023-12-07T03:38:25;98125.94;;;4.48;70.74
84501;BME280;74725;44.210;17.906;2023-12-07T03:40:51;98135.63;;;4.49;70.86
84501;BME280;74725;44.210;17.906;2023-12-07T03:43:19;98134.06;;;4.44;70.99
84501;BME280;74725;44.210;17.906;2023-12-07T03:48:27;98134.84;;;4.41;71.10
84501;BME280;74725;44.210;17.906;2023-12-07T03:50:52;98136.81;;;4.48;70.99
84501;BME280;74725;44.210;17.906;2023-12-07T03:53:18;98145.69;;;4.45;70.82
84501;BME280;74725;44.210;17.906;2023-12-07T04:01:07;98146.38;;;4.16;72.22
84501;BME280;74725;44.210;17.906;2023-12-07T04:03:32;98143.28;;;4.18;72.71
84501;BME280;74725;44.210;17.906;2023-12-07T04:05:58;98147.53;;;4.12;72.15
84501;BME280;74725;44.210;17.906;2023-12-07T04:08:24;98151.41;;;4.22;72.55
84501;BME280;74725;44.210;17.906;2023-12-07T04:10:49;98166.50;;;4.15;72.29
84501;BME280;74725;44.210;17.906;2023-12-07T04:13:15;98167.63;;;4.04;72.96
84501;BME280;74725;44.210;17.906;2023-12-07T04:21:05;98152.88;;;3.98;72.84
84501;BME280;74725;44.210;17.906;2023-12-07T04:23:31;98168.78;;;3.99;72.35
84501;BME280;74725;44.210;17.906;2023-12-07T04:34:03;98179.69;;;4.21;71.86
84501;BME280;74725;44.210;17.906;2023-12-07T04:39:17;98194.47;;;4.34;71.66
84501;BME280;74725;44.210;17.906;2023-12-07T04:41:42;98191.00;;;4.40;71.81
84501;BME280;74725;44.210;17.906;2023-12-07T04:44:08;98187.13;;;4.45;71.65
84501;BME280;74725;44.210;17.906;2023-12-07T04:49:15;98200.66;;;4.27;71.09
84501;BME280;74725;44.210;17.906;2023-12-07T04:51:40;98201.03;;;4.29;71.08
84501;BME280;74725;44.210;17.906;2023-12-07T04:54:07;98184.03;;;4.36;70.85
84501;BME280;74725;44.210;17.906;2023-12-07T04:59:12;98207.69;;;4.43;71.56
84501;BME280;74725;44.210;17.906;2023-12-07T05:01:38;98203.78;;;4.40;71.61
84501;BME280;74725;44.210;17.906;2023-12-07T05:04:04;98199.13;;;4.37;71.60
84501;BME280;74725;44.210;17.906;2023-12-07T05:06:31;98205.66;;;4.29;71.78
84501;BME280;74725;44.210;17.906;2023-12-07T05:08:57;98216.88;;;4.24;72.17
84501;BME280;74725;44.210;17.906;2023-12-07T05:11:23;98216.47;;;4.18;72.45
84501;BME280;74725;44.210;17.906;2023-12-07T05:13:48;98219.50;;;4.09;72.40
84501;BME280;74725;44.210;17.906;2023-12-07T05:18:56;98216.03;;;4.09;72.64
84501;BME280;74725;44.210;17.906;2023-12-07T05:21:21;98227.25;;;4.07;72.78
84501;BME280;74725;44.210;17.906;2023-12-07T05:23:47;98224.94;;;4.09;72.67
84501;BME280;74725;44.210;17.906;2023-12-07T05:31:37;98226.25;;;3.71;73.97
84501;BME280;74725;44.210;17.906;2023-12-07T05:34:02;98225.06;;;3.68;74.47
84501;BME280;74725;44.210;17.906;2023-12-07T05:39:04;98227.69;;;3.58;74.06
84501;BME280;74725;44.210;17.906;2023-12-07T05:41:33;98219.97;;;3.60;74.61
84501;BME280;74725;44.210;17.906;2023-12-07T05:43:58;98228.88;;;3.57;74.85
84501;BME280;74725;44.210;17.906;2023-12-07T05:46:24;98229.59;;;3.54;75.39
84501;BME280;74725;44.210;17.906;2023-12-07T05:48:50;98240.34;;;3.43;75.16
84501;BME280;74725;44.210;17.906;2023-12-07T05:51:16;98244.94;;;3.39;75.40
84501;BME280;74725;44.210;17.906;2023-12-07T05:53:43;98240.28;;;3.36;74.96
84501;BME280;74725;44.210;17.906;2023-12-07T05:56:09;98232.50;;;3.31;74.86
84501;BME280;74725;44.210;17.906;2023-12-07T05:58:35;98241.00;;;3.33;74.99
84501;BME280;74725;44.210;17.906;2023-12-07T06:01:01;98244.56;;;3.37;75.32
84501;BME280;74725;44.210;17.906;2023-12-07T06:03:28;98242.66;;;3.41;75.01
84501;BME280;74725;44.210;17.906;2023-12-07T06:05:54;98251.22;;;3.50;74.91
84501;BME280;74725;44.210;17.906;2023-12-07T06:08:21;98248.09;;;3.48;74.80
84501;BME280;74725;44.210;17.906;2023-12-07T06:10:48;98248.59;;;3.57;74.49
84501;BME280;74725;44.210;17.906;2023-12-07T06:13:13;98247.06;;;3.63;74.43
84501;BME280;74725;44.210;17.906;2023-12-07T06:15:42;98248.69;;;3.72;74.95
84501;BME280;74725;44.210;17.906;2023-12-07T06:18:08;98271.53;;;3.74;74.55
84501;BME280;74725;44.210;17.906;2023-12-07T06:20:34;98261.41;;;3.67;74.68
84501;BME280;74725;44.210;17.906;2023-12-07T06:23:04;98258.28;;;3.62;75.01
84501;BME280;74725;44.210;17.906;2023-12-07T06:25:32;98268.75;;;3.63;75.35
84501;BME280;74725;44.210;17.906;2023-12-07T06:28:03;98262.59;;;3.70;74.81
84501;BME280;74725;44.210;17.906;2023-12-07T06:30:31;98266.09;;;3.71;75.32
84501;BME280;74725;44.210;17.906;2023-12-07T06:32:57;98280.81;;;3.73;74.65
84501;BME280;74725;44.210;17.906;2023-12-07T06:35:23;98285.91;;;3.82;74.36
84501;BME280;74725;44.210;17.906;2023-12-07T06:37:55;98287.53;;;3.90;74.44
84501;BME280;74725;44.210;17.906;2023-12-07T06:40:45;98281.00;;;3.98;74.13
84501;BME280;74725;44.210;17.906;2023-12-07T06:43:36;98293.44;;;4.06;73.96
84501;BME280;74725;44.210;17.906;2023-12-07T06:46:28;98287.25;;;4.09;72.76
84501;BME280;74725;44.210;17.906;2023-12-07T06:49:17;98294.63;;;4.09;73.64
84501;BME280;74725;44.210;17.906;2023-12-07T06:51:49;98289.63;;;4.11;73.92
84501;BME280;74725;44.210;17.906;2023-12-07T06:54:38;98298.94;;;4.17;73.87
84501;BME280;74725;44.210;17.906;2023-12-07T06:57:21;98305.56;;;4.23;73.84
84501;BME280;74725;44.210;17.906;2023-12-07T07:04:03;98309.91;;;4.35;72.56
84501;BME280;74725;44.210;17.906;2023-12-07T07:06:33;98314.09;;;4.25;73.18
84501;BME280;74725;44.210;17.906;2023-12-07T07:08:59;98309.00;;;4.16;73.28
84501;BME280;74725;44.210;17.906;2023-12-07T07:11:26;98310.56;;;4.21;73.34
84501;BME280;74725;44.210;17.906;2023-12-07T07:13:58;98311.38;;;4.25;73.42
84501;BME280;74725;44.210;17.906;2023-12-07T07:16:31;98318.34;;;4.23;73.46
84501;BME280;74725;44.210;17.906;2023-12-07T07:19:29;98309.06;;;4.24;73.54
84501;BME280;74725;44.210;17.906;2023-12-07T07:22:01;98302.88;;;4.27;73.66
84501;BME280;74725;44.210;17.906;2023-12-07T07:24:27;98315.31;;;4.35;73.72
84501;BME280;74725;44.210;17.906;2023-12-07T07:26:53;98314.91;;;4.33;73.23
84501;BME280;74725;44.210;17.906;2023-12-07T07:29:20;98316.47;;;4.37;73.29
84501;BME280;74725;44.210;17.906;2023-12-07T07:31:47;98321.84;;;4.23;73.28
84501;BME280;74725;44.210;17.906;2023-12-07T07:34:13;98313.22;;;4.10;73.13
84501;BME280;74725;44.210;17.906;2023-12-07T07:36:39;98309.88;;;4.31;73.35
84501;BME280;74725;44.210;17.906;2023-12-07T07:39:04;98307.22;;;4.38;72.93
84501;BME280;74725;44.210;17.906;2023-12-07T07:41:34;98307.63;;;4.48;72.76
84501;BME280;74725;44.210;17.906;2023-12-07T07:44:00;98308.06;;;4.53;72.21
84501;BME280;74725;44.210;17.906;2023-12-07T07:46:25;98312.38;;;4.61;72.47
84501;BME280;74725;44.210;17.906;2023-12-07T07:48:51;98306.94;;;4.58;72.03
84501;BME280;74725;44.210;17.906;2023-12-07T07:51:17;98302.66;;;4.53;72.31
84501;BME280;74725;44.210;17.906;2023-12-07T07:53:43;98297.66;;;4.66;72.21
84501;BME280;74725;44.210;17.906;2023-12-07T07:56:12;98305.09;;;4.76;71.09
84501;BME280;74725;44.210;17.906;2023-12-07T07:58:38;98304.72;;;4.81;71.60
84501;BME280;74725;44.210;17.906;2023-12-07T08:01:03;98307.75;;;4.65;71.35
84501;BME280;74725;44.210;17.906;2023-12-07T08:03:30;98308.91;;;4.72;71.63
84501;BME280;74725;44.210;17.906;2023-12-07T08:05:55;98315.13;;;4.69;71.47
84501;BME280;74725;44.210;17.906;2023-12-07T08:08:22;98314.72;;;4.70;72.03
84501;BME280;74725;44.210;17.906;2023-12-07T08:10:47;98310.50;;;4.73;71.81
84501;BME280;74725;44.210;17.906;2023-12-07T08:13:13;98311.63;;;4.72;71.57
84501;BME280;74725;44.210;17.906;2023-12-07T08:15:39;98317.44;;;4.70;72.02
84501;BME280;74725;44.210;17.906;2023-12-07T08:18:04;98303.81;;;4.59;71.70
84501;BME280;74725;44.210;17.906;2023-12-07T08:20:31;98310.84;;;4.68;71.65
84501;BME280;74725;44.210;17.906;2023-12-07T08:22:57;98314.78;;;4.81;71.44
84501;BME280;74725;44.210;17.906;2023-12-07T08:25:23;98314.44;;;4.93;71.53
84501;BME280;74725;44.210;17.906;2023-12-07T08:27:58;98317.19;;;5.11;71.19
84501;BME280;74725;44.210;17.906;2023-12-07T08:30:33;98318.81;;;5.33;70.35
84501;BME280;74725;44.210;17.906;2023-12-07T08:32:59;98311.47;;;5.45;69.78
84501;BME280;74725;44.210;17.906;2023-12-07T08:35:24;98322.75;;;5.47;69.36
84501;BME280;74725;44.210;17.906;2023-12-07T08:37:50;98325.84;;;5.52;69.31
84501;BME280;74725;44.210;17.906;2023-12-07T08:40:16;98321.97;;;5.46;68.52
84501;BME280;74725;44.210;17.906;2023-12-07T08:42:46;98315.38;;;5.54;68.50
84501;BME280;74725;44.210;17.906;2023-12-07T08:45:15;98327.38;;;5.39;68.26
84501;BME280;74725;44.210;17.906;2023-12-07T08:48:08;98322.31;;;5.41;68.97
84501;BME280;74725;44.210;17.906;2023-12-07T08:50:40;98319.63;;;5.55;68.21
84501;BME280;74725;44.210;17.906;2023-12-07T08:53:06;98328.19;;;5.54;68.78
84501;BME280;74725;44.210;17.906;2023-12-07T08:55:32;98323.53;;;5.61;68.21
84501;BME280;74725;44.210;17.906;2023-12-07T08:57:58;98331.28;;;5.59;67.80
84501;BME280;74725;44.210;17.906;2023-12-07T09:00:25;98327.41;;;5.68;68.16
84501;BME280;74725;44.210;17.906;2023-12-07T09:02:51;98334.03;;;5.81;67.58
84501;BME280;74725;44.210;17.906;2023-12-07T09:05:17;98335.97;;;5.87;67.25
84501;BME280;74725;44.210;17.906;2023-12-07T09:07:47;98337.13;;;5.90;67.36
84501;BME280;74725;44.210;17.906;2023-12-07T09:10:13;98337.16;;;6.15;66.81
84501;BME280;74725;44.210;17.906;2023-12-07T09:12:52;98325.91;;;6.17;65.64
84501;BME280;74725;44.210;17.906;2023-12-07T09:15:21;98324.72;;;6.21;65.74
84501;BME280;74725;44.210;17.906;2023-12-07T09:20:29;98325.50;;;6.29;64.93
84501;BME280;74725;44.210;17.906;2023-12-07T09:22:56;98320.47;;;6.24;64.15
84501;BME280;74725;44.210;17.906;2023-12-07T09:25:22;98324.72;;;6.39;63.33
84501;BME280;74725;44.210;17.906;2023-12-07T09:27:48;98319.22;;;6.46;63.77
84501;BME280;74725;44.210;17.906;2023-12-07T09:30:14;98311.88;;;6.47;63.30
84501;BME280;74725;44.210;17.906;2023-12-07T09:32:40;98312.56;;;6.69;63.57
84501;BME280;74725;44.210;17.906;2023-12-07T09:35:09;98317.97;;;6.79;63.11
84501;BME280;74725;44.210;17.906;2023-12-07T09:37:45;98307.78;;;7.01;62.98
84501;BME280;74725;44.210;17.906;2023-12-07T09:40:23;98305.44;;;7.03;62.88
84501;BME280;74725;44.210;17.906;2023-12-07T09:42:50;98304.31;;;6.94;62.87
84501;BME280;74725;44.210;17.906;2023-12-07T09:45:17;98304.69;;;6.92;62.40
84501;BME280;74725;44.210;17.906;2023-12-07T09:47:49;98300.44;;;6.91;63.50
84501;BME280;74725;44.210;17.906;2023-12-07T09:50:18;98300.00;;;7.03;63.05
84501;BME280;74725;44.210;17.906;2023-12-07T09:52:44;98309.31;;;7.09;63.05
84501;BME280;74725;44.210;17.906;2023-12-07T09:55:10;98300.28;;;7.20;62.89
84501;BME280;74725;44.210;17.906;2023-12-07T09:57:39;98299.84;;;7.32;61.53
84501;BME280;74725;44.210;17.906;2023-12-07T10:00:05;98288.03;;;7.53;60.83
84501;BME280;74725;44.210;17.906;2023-12-07T10:02:38;98290.22;;;7.72;60.12
84501;BME280;74725;44.210;17.906;2023-12-07T10:05:08;98292.44;;;7.88;60.77
84501;BME280;74725;44.210;17.906;2023-12-07T10:07:43;98285.28;;;8.01;60.45
84501;BME280;74725;44.210;17.906;2023-12-07T10:10:10;98285.19;;;8.16;59.67
84501;BME280;74725;44.210;17.906;2023-12-07T10:12:50;98276.13;;;8.26;58.26
84501;BME280;74725;44.210;17.906;2023-12-07T10:15:18;98279.47;;;8.44;57.60
84501;BME280;74725;44.210;17.906;2023-12-07T10:17:56;98274.44;;;8.36;58.20
84501;BME280;74725;44.210;17.906;2023-12-07T10:24:12;98278.63;;;7.61;59.00
84501;BME280;74725;44.210;17.906;2023-12-07T10:26:43;98274.72;;;7.62;60.12
84501;BME280;74725;44.210;17.906;2023-12-07T10:29:17;98260.00;;;7.52;59.91
84501;BME280;74725;44.210;17.906;2023-12-07T10:31:47;98265.66;;;7.76;59.80
84501;BME280;74725;44.210;17.906;2023-12-07T10:34:18;98262.22;;;8.13;58.26
84501;BME280;74725;44.210;17.906;2023-12-07T10:36:48;98249.66;;;8.23;57.97
84501;BME280;74725;44.210;17.906;2023-12-07T10:39:17;98261.22;;;8.34;58.53
84501;BME280;74725;44.210;17.906;2023-12-07T10:41:43;98256.84;;;8.44;58.60
84501;BME280;74725;44.210;17.906;2023-12-07T10:44:13;98259.53;;;8.47;57.85
84501;BME280;74725;44.210;17.906;2023-12-07T10:46:42;98261.75;;;8.60;56.90
84501;BME280;74725;44.210;17.906;2023-12-07T10:49:15;98261.94;;;8.76;56.76
84501;BME280;74725;44.210;17.906;2023-12-07T10:51:51;98246.97;;;8.88;55.58
84501;BME280;74725;44.210;17.906;2023-12-07T10:54:22;98244.69;;;8.82;55.53
84501;BME280;74725;44.210;17.906;2023-12-07T10:56:51;98260.94;;;8.93;55.70
84501;BME280;74725;44.210;17.906;2023-12-07T10:59:26;98253.72;;;9.10;56.26
84501;BME280;74725;44.210;17.906;2023-12-07T11:01:53;98256.19;;;9.28;54.59
84501;BME280;74725;44.210;17.906;2023-12-07T11:04:19;98253.97;;;9.19;54.58
84501;BME280;74725;44.210;17.906;2023-12-07T11:06:48;98246.19;;;9.18;54.34
84501;BME280;74725;44.210;17.906;2023-12-07T11:09:19;98245.66;;;9.26;53.70
84501;BME280;74725;44.210;17.906;2023-12-07T11:12:08;98240.06;;;9.37;53.26
84501;BME280;74725;44.210;17.906;2023-12-07T11:14:37;98246.09;;;9.48;54.05
84501;BME280;74725;44.210;17.906;2023-12-07T11:17:05;98245.34;;;9.71;53.79
84501;BME280;74725;44.210;17.906;2023-12-07T11:22:12;98242.53;;;10.22;52.31
84501;BME280;74725;44.210;17.906;2023-12-07T11:24:55;98240.00;;;10.55;51.46
84501;BME280;74725;44.210;17.906;2023-12-07T11:27:24;98246.38;;;10.68;50.45
84501;BME280;74725;44.210;17.906;2023-12-07T11:29:50;98253.88;;;10.64;50.91
84501;BME280;74725;44.210;17.906;2023-12-07T11:32:16;98241.03;;;10.61;51.08
84501;BME280;74725;44.210;17.906;2023-12-07T11:34:43;98240.56;;;10.46;49.41
84501;BME280;74725;44.210;17.906;2023-12-07T11:37:11;98242.63;;;9.95;49.04
84501;BME280;74725;44.210;17.906;2023-12-07T11:39:40;98239.97;;;9.91;50.64
84501;BME280;74725;44.210;17.906;2023-12-07T11:42:15;98240.41;;;9.63;50.86
84501;BME280;74725;44.210;17.906;2023-12-07T11:44:43;98241.56;;;9.65;51.05
84501;BME280;74725;44.210;17.906;2023-12-07T11:47:17;98246.97;;;9.18;50.30
84501;BME280;74725;44.210;17.906;2023-12-07T11:49:44;98245.31;;;8.94;51.10
84501;BME280;74725;44.210;17.906;2023-12-07T11:52:14;98253.03;;;8.72;51.17
84501;BME280;74725;44.210;17.906;2023-12-07T11:54:42;98252.31;;;8.68;51.13
84501;BME280;74725;44.210;17.906;2023-12-07T11:57:07;98244.06;;;8.71;51.13
84501;BME280;74725;44.210;17.906;2023-12-07T11:59:33;98253.25;;;8.85;51.30
84501;BME280;74725;44.210;17.906;2023-12-07T12:01:59;98250.75;;;8.97;51.15
84501;BME280;74725;44.210;17.906;2023-12-07T12:04:25;98250.56;;;9.12;50.25
84501;BME280;74725;44.210;17.906;2023-12-07T12:06:53;98256.16;;;9.01;51.01
84501;BME280;74725;44.210;17.906;2023-12-07T12:09:19;98246.34;;;8.76;51.40
84501;BME280;74725;44.210;17.906;2023-12-07T12:11:46;98244.97;;;8.61;50.72
84501;BME280;74725;44.210;17.906;2023-12-07T12:14:16;98241.81;;;8.63;50.58
84501;BME280;74725;44.210;17.906;2023-12-07T12:16:43;98254.41;;;8.53;50.58
84501;BME280;74725;44.210;17.906;2023-12-07T12:19:09;98247.53;;;8.41;50.64
84501;BME280;74725;44.210;17.906;2023-12-07T12:21:36;98248.81;;;8.29;50.63
84501;BME280;74725;44.210;17.906;2023-12-07T12:24:07;98248.72;;;7.99;51.13
84501;BME280;74725;44.210;17.906;2023-12-07T12:26:35;98244.81;;;8.00;51.52
84501;BME280;74725;44.210;17.906;2023-12-07T12:29:02;98237.78;;;8.02;52.18
84501;BME280;74725;44.210;17.906;2023-12-07T12:31:29;98248.34;;;7.97;51.81
84501;BME280;74725;44.210;17.906;2023-12-07T12:33:55;98249.50;;;7.99;51.11
84501;BME280;74725;44.210;17.906;2023-12-07T12:36:21;98248.59;;;8.13;51.21
84501;BME280;74725;44.210;17.906;2023-12-07T12:38:51;98242.16;;;8.30;51.54
84501;BME280;74725;44.210;17.906;2023-12-07T12:41:21;98251.06;;;8.38;51.03
84501;BME280;74725;44.210;17.906;2023-12-07T12:43:48;98256.06;;;8.43;50.65
84501;BME280;74725;44.210;17.906;2023-12-07T12:46:15;98241.38;;;8.30;50.25
84501;BME280;74725;44.210;17.906;2023-12-07T12:49:00;98237.19;;;8.22;50.93
84501;BME280;74725;44.210;17.906;2023-12-07T12:51:30;98240.28;;;8.24;50.95
84501;BME280;74725;44.210;17.906;2023-12-07T12:53:58;98244.91;;;8.27;50.75
84501;BME280;74725;44.210;17.906;2023-12-07T12:56:26;98240.63;;;8.29;50.01
84501;BME280;74725;44.210;17.906;2023-12-07T12:58:53;98226.59;;;8.27;50.08
84501;BME280;74725;44.210;17.906;2023-12-07T13:01:22;98229.28;;;8.31;50.80
84501;BME280;74725;44.210;17.906;2023-12-07T13:03:48;98236.63;;;8.41;50.66
84501;BME280;74725;44.210;17.906;2023-12-07T13:06:14;98236.81;;;8.20;50.35
84501;BME280;74725;44.210;17.906;2023-12-07T13:08:50;98238.31;;;8.24;49.72
84501;BME280;74725;44.210;17.906;2023-12-07T13:11:19;98230.38;;;8.03;50.34
84501;BME280;74725;44.210;17.906;2023-12-07T13:13:45;98237.31;;;8.07;51.28
84501;BME280;74725;44.210;17.906;2023-12-07T13:16:12;98238.75;;;7.78;50.37
84501;BME280;74725;44.210;17.906;2023-12-07T13:18:40;98240.34;;;7.79;51.12
84501;BME280;74725;44.210;17.906;2023-12-07T13:21:06;98236.41;;;7.80;50.97
84501;BME280;74725;44.210;17.906;2023-12-07T13:23:32;98237.44;;;7.97;51.07
84501;BME280;74725;44.210;17.906;2023-12-07T13:25:58;98240.22;;;7.90;51.26
84501;BME280;74725;44.210;17.906;2023-12-07T13:31:05;98240.88;;;7.59;50.50
84501;BME280;74725;44.210;17.906;2023-12-07T13:33:32;98238.94;;;7.60;51.41
84501;BME280;74725;44.210;17.906;2023-12-07T13:35:57;98233.47;;;7.60;51.25
84501;BME280;74725;44.210;17.906;2023-12-07T13:40:52;98242.19;;;7.41;52.21
84501;BME280;74725;44.210;17.906;2023-12-07T13:43:18;98249.63;;;7.37;52.98
84501;BME280;74725;44.210;17.906;2023-12-07T13:45:44;98263.38;;;7.11;53.64
84501;BME280;74725;44.210;17.906;2023-12-07T13:48:09;98269.66;;;7.01;53.85
84501;BME280;74725;44.210;17.906;2023-12-07T13:50:35;98279.09;;;6.79;55.63
84501;BME280;74725;44.210;17.906;2023-12-07T13:53:01;98273.41;;;6.37;58.59
84501;BME280;74725;44.210;17.906;2023-12-07T13:55:27;98292.88;;;6.15;60.16
84501;BME280;74725;44.210;17.906;2023-12-07T13:58:03;98285.50;;;5.83;62.59
84501;BME280;74725;44.210;17.906;2023-12-07T14:00:35;98288.63;;;5.78;63.54
84501;BME280;74725;44.210;17.906;2023-12-07T14:03:05;98281.63;;;5.73;64.08
84501;BME280;74725;44.210;17.906;2023-12-07T14:05:51;98301.38;;;5.45;65.89
84501;BME280;74725;44.210;17.906;2023-12-07T14:08:17;98298.66;;;5.38;66.73
84501;BME280;74725;44.210;17.906;2023-12-07T14:10:44;98302.53;;;5.37;66.06
84501;BME280;74725;44.210;17.906;2023-12-07T14:13:10;98297.88;;;5.41;65.47
84501;BME280;74725;44.210;17.906;2023-12-07T14:15:36;98304.88;;;5.38;65.41
84501;BME280;74725;44.210;17.906;2023-12-07T14:18:02;98313.78;;;5.35;65.63
84501;BME280;74725;44.210;17.906;2023-12-07T14:20:28;98304.47;;;5.29;66.36
84501;BME280;74725;44.210;17.906;2023-12-07T14:22:57;98308.72;;;5.23;66.78
84501;BME280;74725;44.210;17.906;2023-12-07T14:25:30;98316.09;;;5.26;66.31
84501;BME280;74725;44.210;17.906;2023-12-07T14:27:55;98314.16;;;5.20;66.80
84501;BME280;74725;44.210;17.906;2023-12-07T14:30:21;98319.59;;;5.23;66.90
84501;BME280;74725;44.210;17.906;2023-12-07T14:32:48;98321.09;;;5.17;66.89
84501;BME280;74725;44.210;17.906;2023-12-07T14:35:20;98313.00;;;5.24;66.37
84501;BME280;74725;44.210;17.906;2023-12-07T14:37:47;98324.56;;;5.10;67.28
84501;BME280;74725;44.210;17.906;2023-12-07T15:01:33;98342.84;;;5.21;66.56
84501;BME280;74725;44.210;17.906;2023-12-07T15:03:59;98341.69;;;5.25;66.53
84501;BME280;74725;44.210;17.906;2023-12-07T15:06:25;98346.34;;;5.25;66.79
84501;BME280;74725;44.210;17.906;2023-12-07T15:11:33;98339.38;;;5.24;67.10
84501;BME280;74725;44.210;17.906;2023-12-07T15:14:01;98344.03;;;5.27;67.23
84501;BME280;74725;44.210;17.906;2023-12-07T15:16:28;98348.28;;;5.21;67.12
84501;BME280;74725;44.210;17.906;2023-12-07T15:18:54;98351.00;;;5.21;67.02
84501;BME280;74725;44.210;17.906;2023-12-07T15:21:20;98352.16;;;5.20;66.92
84501;BME280;74725;44.210;17.906;2023-12-07T15:23:46;98340.13;;;5.21;67.03
84501;BME280;74725;44.210;17.906;2023-12-07T15:26:11;98351.41;;;5.23;66.65
84501;BME280;74725;44.210;17.906;2023-12-07T15:31:19;98340.53;;;5.30;66.19
84501;BME280;74725;44.210;17.906;2023-12-07T15:33:44;98349.09;;;5.35;66.19